Time;durP1;ratioP1;P1;durP2;ratioP2;P2;SDS_P1;SDS_P2;PMS_P1;PMS_P2;Temp;Humidity;BMP_temperature;BMP_pressure;BME280_temperature;BME280_humidity;BME280_pressure;Samples;Min_cycle;Max_cycle;Signal;HPM_P1;HPM_P2
2023/05/31 00:00:13;;;;;;;5.85;5.25;;;;;;;12.21;81.98;102462.53;5041994;28;20089;-82
2023/05/31 00:02:38;;;;;;;7.95;5.30;;;;;;;12.20;82.02;102474.13;5043991;28;20029;-82
2023/05/31 00:05:04;;;;;;;6.97;5.20;;;;;;;12.20;82.73;102476.78;5049310;28;20029;-82
2023/05/31 00:07:30;;;;;;;6.35;5.47;;;;;;;12.18;82.87;102478.69;5041855;28;20018;-83
2023/05/31 00:09:55;;;;;;;7.05;5.60;;;;;;;12.13;82.59;102478.94;5042231;28;20026;-83
2023/05/31 00:12:21;;;;;;;7.80;5.33;;;;;;;12.15;82.96;102481.50;5041658;28;20120;-82
2023/05/31 00:14:46;;;;;;;6.38;5.72;;;;;;;12.14;82.84;102483.34;5044021;28;20299;-82
2023/05/31 00:17:12;;;;;;;6.38;5.22;;;;;;;12.11;82.71;102482.66;5037047;28;20083;-83
2023/05/31 00:19:37;;;;;;;5.88;5.38;;;;;;;12.10;83.64;102478.25;5036356;28;20476;-83
2023/05/31 00:22:02;;;;;;;6.03;5.47;;;;;;;12.12;83.19;102477.22;5035717;28;20029;-82
2023/05/31 00:24:28;;;;;;;7.22;6.00;;;;;;;12.08;83.70;102477.50;5035994;28;20034;-82
2023/05/31 00:26:53;;;;;;;6.18;5.55;;;;;;;12.05;84.10;102475.84;5036285;28;20033;-82
2023/05/31 00:29:18;;;;;;;6.90;6.10;;;;;;;12.03;84.05;102475.94;5035599;28;20812;-82
2023/05/31 00:31:43;;;;;;;6.70;5.67;;;;;;;12.03;83.77;102488.41;5036194;28;20280;-82
2023/05/31 00:34:10;;;;;;;8.27;5.22;;;;;;;12.01;84.19;102476.97;5037071;28;20296;-82
2023/05/31 00:36:36;;;;;;;6.85;5.47;;;;;;;11.99;84.65;102477.06;5036341;28;20518;-82
2023/05/31 00:39:02;;;;;;;8.90;5.85;;;;;;;11.96;84.81;102476.38;5039639;28;20049;-82
2023/05/31 00:41:27;;;;;;;7.80;6.43;;;;;;;11.89;85.66;102473.19;5036785;28;20064;-82
2023/05/31 00:43:53;;;;;;;7.47;5.90;;;;;;;11.92;85.37;102483.66;5039163;28;20029;-81
2023/05/31 00:46:32;;;;;;;6.32;5.72;;;;;;;11.89;85.42;102486.50;5034937;28;20053;-82
2023/05/31 00:48:57;;;;;;;;;;;;;;;11.99;82.06;102490.38;5035920;28;20523;-82
2023/05/31 00:51:24;;;;;;;6.63;5.70;;;;;;;11.87;84.82;102483.03;5034395;28;19947;-81
2023/05/31 00:53:51;;;;;;;6.95;5.95;;;;;;;11.84;86.11;102483.22;5043624;28;20033;-82
2023/05/31 00:56:18;;;;;;;6.95;6.07;;;;;;;11.81;85.84;102478.06;5053396;28;20033;-81
2023/05/31 00:58:45;;;;;;;6.95;5.88;;;;;;;11.81;86.05;102492.22;5044946;28;20017;-82
2023/05/31 01:01:13;;;;;;;7.15;5.80;;;;;;;11.75;86.33;102481.91;5042805;28;20021;-82
2023/05/31 01:03:39;;;;;;;6.78;6.07;;;;;;;11.77;86.53;102488.00;5040435;28;20033;-82
2023/05/31 01:06:04;;;;;;;6.95;6.05;;;;;;;11.72;86.12;102482.09;5035318;28;20472;-82
2023/05/31 01:08:30;;;;;;;6.45;5.85;;;;;;;11.75;86.52;102497.88;5034270;28;20388;-82
2023/05/31 01:11:02;;;;;;;7.50;6.25;;;;;;;11.71;86.78;102490.16;5035172;28;20029;-82
2023/05/31 01:13:37;;;;;;;6.72;6.13;;;;;;;11.71;87.42;102496.34;5030113;28;20037;-82
2023/05/31 01:16:16;;;;;;;6.20;5.60;;;;;;;11.71;87.09;102500.78;5035613;28;20025;-82
2023/05/31 01:18:45;;;;;;;6.88;6.07;;;;;;;11.60;87.19;102480.97;5034760;28;20108;-82
2023/05/31 01:21:13;;;;;;;7.35;5.93;;;;;;;11.63;87.86;102493.25;5033123;28;20040;-82
2023/05/31 01:24:19;;;;;;;6.53;5.80;;;;;;;11.68;87.16;102491.19;5034717;28;20022;-82
2023/05/31 01:26:49;;;;;;;7.50;6.10;;;;;;;11.58;88.59;102485.50;5029758;28;20057;-82
2023/05/31 01:29:21;;;;;;;6.28;5.68;;;;;;;11.58;87.97;102488.16;5026634;28;20025;-83
2023/05/31 01:31:48;;;;;;;8.57;5.80;;;;;;;11.60;88.16;102493.41;5034896;28;20091;-83
2023/05/31 01:34:13;;;;;;;6.32;5.68;;;;;;;11.57;88.56;102483.78;5034851;28;20057;-83
2023/05/31 01:36:39;;;;;;;6.32;5.70;;;;;;;11.57;88.34;102485.59;5027042;28;20483;-82
2023/05/31 01:39:05;;;;;;;11.45;6.65;;;;;;;11.52;89.10;102479.66;5034813;28;20068;-82
2023/05/31 01:41:36;;;;;;;7.82;6.40;;;;;;;11.49;88.95;102480.72;5032576;28;20117;-82
2023/05/31 01:44:03;;;;;;;8.10;6.40;;;;;;;11.45;88.77;102479.13;5034713;28;20040;-82
2023/05/31 01:46:28;;;;;;;8.88;6.68;;;;;;;11.43;89.31;102476.56;5033946;28;20384;-83
2023/05/31 01:48:54;;;;;;;7.80;6.32;;;;;;;11.39;90.17;102480.34;5034550;28;20037;-82
2023/05/31 01:51:20;;;;;;;6.45;5.80;;;;;;;11.42;89.97;102482.84;5034329;28;20108;-82
2023/05/31 01:53:46;;;;;;;8.90;6.28;;;;;;;11.37;90.63;102482.19;5034212;28;20031;-83
2023/05/31 01:56:12;;;;;;;8.65;6.35;;;;;;;11.36;90.24;102480.50;5034114;28;20116;-82
2023/05/31 01:58:41;;;;;;;7.80;6.63;;;;;;;11.31;90.75;102474.56;5034237;28;20104;-82
2023/05/31 02:01:10;;;;;;;8.02;6.30;;;;;;;11.32;90.57;102470.94;5033359;28;20386;-82
2023/05/31 02:03:36;;;;;;;6.70;6.10;;;;;;;11.27;91.11;102465.03;5020703;28;20357;-81
2023/05/31 02:06:01;;;;;;;8.07;6.10;;;;;;;11.25;91.00;102462.44;5027717;28;20060;-81
2023/05/31 02:08:27;;;;;;;9.15;6.25;;;;;;;11.19;91.63;102453.94;5032693;28;20030;-82
2023/05/31 02:10:53;;;;;;;9.88;6.70;;;;;;;11.26;91.96;102471.31;5033783;28;20022;-82
2023/05/31 02:13:19;;;;;;;7.07;6.38;;;;;;;11.21;92.67;102466.22;5033759;28;20380;-82
2023/05/31 02:15:44;;;;;;;8.27;6.50;;;;;;;11.24;92.13;102465.19;5033592;28;20033;-81
2023/05/31 02:18:10;;;;;;;12.23;6.68;;;;;;;11.24;92.23;102468.72;5033573;28;20033;-82
2023/05/31 02:20:35;;;;;;;10.85;6.47;;;;;;;11.25;92.15;102456.28;5034939;28;20064;-82
2023/05/31 02:23:00;;;;;;;7.50;6.43;;;;;;;11.22;92.34;102451.13;5033405;28;20053;-82
2023/05/31 02:25:26;;;;;;;11.25;7.00;;;;;;;11.24;93.15;102466.06;5029695;28;20091;-83
2023/05/31 02:27:51;;;;;;;7.57;6.70;;;;;;;11.23;92.59;102467.00;5040734;28;20029;-82
2023/05/31 02:30:17;;;;;;;9.20;6.90;;;;;;;11.23;93.40;102466.13;5037573;28;20121;-82
2023/05/31 02:32:42;;;;;;;9.63;6.93;;;;;;;11.19;93.48;102473.44;5040801;28;20018;-82
2023/05/31 02:35:10;;;;;;;8.73;7.15;;;;;;;11.15;93.53;102471.00;5031394;28;20561;-81
2023/05/31 02:37:36;;;;;;;8.70;6.78;;;;;;;11.18;93.73;102470.84;5033271;28;20025;-82
2023/05/31 02:40:09;;;;;;;8.88;6.90;;;;;;;11.16;93.36;102464.72;5030380;28;20036;-81
2023/05/31 02:42:36;;;;;;;7.85;7.05;;;;;;;11.08;93.80;102467.81;5033021;28;20067;-83
2023/05/31 02:45:02;;;;;;;8.18;6.55;;;;;;;11.08;94.91;102462.50;5032773;28;20048;-82
2023/05/31 02:47:27;;;;;;;7.78;7.00;;;;;;;11.07;94.96;102466.09;5033342;28;20030;-82
2023/05/31 02:49:52;;;;;;;10.55;7.53;;;;;;;11.02;95.11;102468.97;5021789;28;20018;-82
2023/05/31 02:52:18;;;;;;;9.80;7.32;;;;;;;10.97;94.93;102456.88;5033060;28;20118;-82
2023/05/31 02:54:43;;;;;;;7.97;7.18;;;;;;;11.03;94.99;102468.03;5032561;28;20026;-82
2023/05/31 02:57:09;;;;;;;10.07;7.25;;;;;;;11.04;95.12;102468.91;5024466;28;20030;-82
2023/05/31 02:59:34;;;;;;;12.80;8.00;;;;;;;10.96;94.96;102456.03;5032330;28;20021;-82
2023/05/31 03:01:59;;;;;;;10.38;7.32;;;;;;;11.01;94.62;102463.78;5032487;28;20375;-82
2023/05/31 03:04:25;;;;;;;8.38;7.18;;;;;;;11.00;95.12;102462.88;5032531;28;20433;-82
2023/05/31 03:06:50;;;;;;;9.15;8.00;;;;;;;10.99;95.24;102471.81;5028627;28;20034;-82
2023/05/31 03:09:16;;;;;;;10.18;7.88;;;;;;;10.98;95.50;102472.75;5032229;28;20029;-83
2023/05/31 03:11:43;;;;;;;10.65;7.50;;;;;;;10.96;95.10;102469.31;5032885;28;20482;-82
2023/05/31 03:14:08;;;;;;;9.65;8.20;;;;;;;10.94;96.01;102468.50;5032748;28;20060;-82
2023/05/31 03:16:33;;;;;;;11.27;7.87;;;;;;;10.97;95.26;102462.19;5032581;28;20030;-82
2023/05/31 03:18:59;;;;;;;8.93;7.50;;;;;;;10.91;95.63;102463.38;5043154;28;20284;-81
2023/05/31 03:21:24;;;;;;;8.77;7.78;;;;;;;10.92;95.45;102463.31;5032891;28;20034;-82
2023/05/31 03:23:50;;;;;;;10.85;7.68;;;;;;;10.92;95.70;102465.09;5036816;28;20041;-82
2023/05/31 03:26:15;;;;;;;11.38;8.40;;;;;;;10.84;95.94;102451.31;5037219;28;20025;-82
2023/05/31 03:28:40;;;;;;;8.90;8.00;;;;;;;10.85;96.31;102459.22;5037360;28;20040;-82
2023/05/31 03:31:05;;;;;;;10.05;7.63;;;;;;;10.84;96.15;102456.66;5036934;28;20465;-81
2023/05/31 03:33:32;;;;;;;10.48;8.27;;;;;;;10.86;96.17;102463.63;5037242;28;20025;-82
2023/05/31 03:35:57;;;;;;;12.73;8.45;;;;;;;10.81;96.22;102451.50;5036801;28;20048;-82
2023/05/31 03:38:22;;;;;;;12.68;8.60;;;;;;;10.85;96.67;102466.34;5037365;28;20030;-82
2023/05/31 03:40:47;;;;;;;10.95;8.27;;;;;;;10.83;96.52;102468.25;5037174;28;20037;-82
2023/05/31 03:43:15;;;;;;;10.82;8.20;;;;;;;10.79;96.33;102459.56;5032835;28;20022;-82
2023/05/31 03:45:40;;;;;;;9.45;8.20;;;;;;;10.84;96.76;102467.28;5017554;28;20456;-82
2023/05/31 03:48:06;;;;;;;13.15;8.75;;;;;;;10.81;96.84;102462.13;5017398;28;20026;-82
2023/05/31 03:50:31;;;;;;;11.50;8.55;;;;;;;10.81;96.96;102465.66;5027766;28;20044;-82
2023/05/31 03:52:56;;;;;;;12.57;8.43;;;;;;;10.76;96.49;102459.72;5036898;28;20029;-82
2023/05/31 03:55:21;;;;;;;9.90;8.07;;;;;;;10.84;96.62;102469.94;5036715;28;20561;-81
2023/05/31 03:57:47;;;;;;;10.25;8.27;;;;;;;10.83;96.88;102470.91;5036655;28;20486;-81
2023/05/31 04:00:13;;;;;;;11.88;8.43;;;;;;;10.81;97.34;102472.75;5036680;28;20055;-81
2023/05/31 04:02:39;;;;;;;12.40;8.88;;;;;;;10.80;97.18;102473.72;5037013;28;20037;-81
2023/05/31 04:05:05;;;;;;;10.88;9.00;;;;;;;10.70;97.87;102457.38;5036559;28;20476;-81
2023/05/31 04:07:31;;;;;;;13.07;8.95;;;;;;;10.79;97.69;102467.53;5036305;28;20068;-82
2023/05/31 04:09:57;;;;;;;11.70;9.43;;;;;;;10.80;97.25;102465.72;5036569;28;20105;-82
2023/05/31 04:12:22;;;;;;;11.45;8.90;;;;;;;10.78;97.70;102462.31;5038612;28;20053;-82
2023/05/31 04:14:47;;;;;;;11.93;9.15;;;;;;;10.78;98.19;102464.97;5045009;28;20062;-82
2023/05/31 04:17:12;;;;;;;12.35;9.65;;;;;;;10.81;98.09;102465.66;5053086;28;20037;-82
2023/05/31 04:19:38;;;;;;;11.43;9.43;;;;;;;10.81;98.48;102457.69;5031034;28;20137;-83
2023/05/31 04:22:04;;;;;;;13.63;9.88;;;;;;;10.82;98.07;102462.03;5022316;28;20072;-82
2023/05/31 04:24:30;;;;;;;10.73;9.23;;;;;;;10.88;98.31;102466.19;5036834;28;20108;-82
2023/05/31 04:26:56;;;;;;;12.88;9.95;;;;;;;10.90;98.51;102467.81;5037279;28;20104;-83
2023/05/31 04:29:21;;;;;;;12.25;9.77;;;;;;;10.92;98.17;102471.28;5036663;28;20502;-82
2023/05/31 04:31:46;;;;;;;12.63;9.43;;;;;;;10.87;98.88;102452.03;5036257;28;20112;-83
2023/05/31 04:34:18;;;;;;;13.13;9.88;;;;;;;10.89;98.79;102455.50;5025675;28;20042;-82
2023/05/31 04:36:48;;;;;;;17.30;10.98;;;;;;;10.95;99.13;102467.59;5021285;28;20029;-81
2023/05/31 04:39:15;;;;;;;20.05;11.15;;;;;;;10.97;99.52;102457.72;5037057;28;20029;-82
2023/05/31 04:41:41;;;;;;;13.63;10.73;;;;;;;10.98;99.22;102450.63;5034917;28;20091;-83
2023/05/31 04:44:06;;;;;;;15.75;11.25;;;;;;;11.05;99.51;102458.19;5036223;28;20037;-82
2023/05/31 04:46:32;;;;;;;14.82;12.20;;;;;;;11.15;99.14;102465.69;5038306;28;20025;-82
2023/05/31 04:48:58;;;;;;;14.05;10.75;;;;;;;11.21;98.74;102460.91;5043841;28;20029;-82
2023/05/31 04:51:23;;;;;;;15.80;11.10;;;;;;;11.32;99.26;102472.75;5041495;28;20468;-82
2023/05/31 04:53:48;;;;;;;15.85;11.85;;;;;;;11.36;98.76;102469.88;5056828;28;20041;-82
2023/05/31 04:56:14;;;;;;;17.20;11.95;;;;;;;11.45;98.77;102469.34;5055783;28;20038;-82
2023/05/31 04:58:40;;;;;;;18.00;11.77;;;;;;;11.53;98.38;102454.78;5049093;28;20029;-82
2023/05/31 05:01:06;;;;;;;15.60;11.73;;;;;;;11.66;97.67;102462.00;5047514;28;20045;-81
2023/05/31 05:03:32;;;;;;;17.92;12.43;;;;;;;11.72;97.26;102465.25;5037980;28;20029;-83
2023/05/31 05:06:01;;;;;;;16.67;12.30;;;;;;;11.78;97.00;102456.94;5042409;28;20041;-82
2023/05/31 05:08:26;;;;;;;17.27;13.27;;;;;;;11.79;96.85;102438.22;5045113;28;20442;-82
2023/05/31 05:10:51;;;;;;;17.95;11.77;;;;;;;11.89;96.60;102451.00;5039704;28;20045;-82
2023/05/31 05:13:17;;;;;;;17.83;12.48;;;;;;;11.92;96.28;102457.03;5038910;28;20025;-82
2023/05/31 05:15:42;;;;;;;15.18;12.40;;;;;;;11.97;95.94;102465.66;5039033;28;20021;-83
2023/05/31 05:18:07;;;;;;;15.68;12.43;;;;;;;12.01;95.70;102469.00;5038431;28;20120;-83
2023/05/31 05:20:32;;;;;;;19.30;13.02;;;;;;;12.00;96.28;102461.94;5036096;28;20054;-82
2023/05/31 05:23:01;;;;;;;20.00;12.65;;;;;;;12.08;96.18;102474.84;5016642;28;20041;-83
2023/05/31 05:25:27;;;;;;;17.45;12.75;;;;;;;12.08;95.44;102466.84;5036349;28;20025;-83
2023/05/31 05:27:52;;;;;;;15.65;12.32;;;;;;;12.20;95.19;102472.31;5038141;28;20017;-83
2023/05/31 05:30:17;;;;;;;19.73;13.05;;;;;;;12.34;95.07;102481.31;5035392;28;20029;-83
2023/05/31 05:32:43;;;;;;;20.40;12.57;;;;;;;12.49;94.63;102471.56;5035807;28;20036;-82
2023/05/31 05:35:08;;;;;;;18.80;13.90;;;;;;;12.66;93.63;102473.25;5038870;28;20029;-82
2023/05/31 05:37:34;;;;;;;22.98;13.25;;;;;;;12.84;93.72;102464.16;5037631;28;20029;-82
2023/05/31 05:39:59;;;;;;;20.38;12.40;;;;;;;13.07;92.06;102469.88;5037596;28;20034;-82
2023/05/31 05:42:25;;;;;;;17.80;12.73;;;;;;;13.28;90.47;102463.22;5036817;28;20076;-81
2023/05/31 05:44:51;;;;;;;16.27;12.65;;;;;;;13.46;89.50;102473.75;5028741;28;20029;-83
2023/05/31 05:47:16;;;;;;;17.38;12.88;;;;;;;13.60;88.30;102478.19;5023437;28;20026;-82
2023/05/31 05:49:41;;;;;;;15.95;12.65;;;;;;;13.76;87.96;102472.75;5026710;28;20052;-84
2023/05/31 05:52:07;;;;;;;18.67;12.70;;;;;;;13.94;86.54;102465.34;5035409;28;20217;-83
2023/05/31 05:54:32;;;;;;;17.50;12.67;;;;;;;14.16;85.32;102471.00;5031962;28;20302;-84
2023/05/31 05:56:57;;;;;;;16.15;11.82;;;;;;;14.30;84.71;102469.25;5034366;28;20642;-84
2023/05/31 05:59:23;;;;;;;16.92;12.90;;;;;;;14.46;83.56;102479.78;5035822;28;20037;-84
2023/05/31 06:01:48;;;;;;;17.75;12.68;;;;;;;14.65;82.95;102471.38;5052004;28;20094;-84
2023/05/31 06:04:13;;;;;;;16.95;12.15;;;;;;;14.72;82.01;102462.84;5034673;28;20479;-84
2023/05/31 06:06:39;;;;;;;15.85;12.38;;;;;;;14.93;82.03;102470.34;5034811;28;20029;-84
2023/05/31 06:09:04;;;;;;;16.38;12.43;;;;;;;15.18;80.65;102472.16;5034621;28;20042;-84
2023/05/31 06:11:29;;;;;;;17.65;12.18;;;;;;;15.26;79.35;102464.47;5036148;28;20105;-84
2023/05/31 06:13:57;;;;;;;17.75;12.13;;;;;;;15.37;78.78;102466.38;5035365;28;20045;-85
2023/05/31 06:16:23;;;;;;;15.30;11.50;;;;;;;15.50;77.77;102475.25;5034771;28;20029;-83
2023/05/31 06:18:49;;;;;;;17.15;11.63;;;;;;;15.64;77.30;102471.56;5034152;28;20045;-83
2023/05/31 06:21:22;;;;;;;20.45;11.80;;;;;;;15.82;77.00;102473.91;5029627;28;20029;-84
2023/05/31 06:23:47;;;;;;;16.17;11.50;;;;;;;15.93;76.16;102481.19;5031142;28;20041;-84
2023/05/31 06:26:22;;;;;;;15.73;12.23;;;;;;;16.16;75.80;102474.13;5025413;28;20330;-83
2023/05/31 06:28:47;;;;;;;17.65;11.75;;;;;;;16.24;74.88;102480.59;5025389;28;20115;-84
2023/05/31 06:31:13;;;;;;;16.90;12.27;;;;;;;16.40;74.21;102472.28;5034095;28;20476;-83
2023/05/31 06:33:38;;;;;;;18.48;12.45;;;;;;;16.55;73.12;102480.13;5032525;28;20033;-83
2023/05/31 06:36:03;;;;;;;17.42;12.60;;;;;;;16.54;72.33;102476.59;5033740;28;20025;-83
2023/05/31 06:38:29;;;;;;;17.40;12.35;;;;;;;16.80;72.65;102471.03;5033595;28;20032;-81
2023/05/31 06:40:54;;;;;;;14.65;11.63;;;;;;;17.09;72.04;102481.38;5033852;28;20545;-82
2023/05/31 06:43:20;;;;;;;14.90;12.20;;;;;;;17.35;71.25;102480.19;5033683;28;20026;-84
2023/05/31 06:45:45;;;;;;;17.38;12.48;;;;;;;17.51;71.22;102487.84;5025595;28;20018;-83
2023/05/31 06:48:10;;;;;;;19.08;11.55;;;;;;;17.66;69.33;102479.56;5033060;28;20025;-84
2023/05/31 06:50:36;;;;;;;15.97;10.60;;;;;;;17.80;68.04;102489.16;5030665;28;20136;-84
2023/05/31 06:53:01;;;;;;;13.07;11.68;;;;;;;18.00;67.46;102490.25;5022533;28;20354;-84
2023/05/31 06:55:27;;;;;;;15.23;12.02;;;;;;;18.15;66.98;102483.59;5031532;28;20052;-84
2023/05/31 06:57:53;;;;;;;17.92;12.18;;;;;;;18.28;65.16;102486.13;5031726;28;20021;-85
2023/05/31 07:00:19;;;;;;;13.07;10.52;;;;;;;18.55;65.87;102484.78;5033422;28;20446;-83
2023/05/31 07:02:45;;;;;;;15.90;11.02;;;;;;;18.66;64.78;102476.69;5028270;28;20053;-84
2023/05/31 07:05:10;;;;;;;13.93;10.93;;;;;;;18.89;63.49;102490.88;5019430;28;20060;-83
2023/05/31 07:07:35;;;;;;;16.55;11.77;;;;;;;18.85;62.41;102484.91;5024884;28;20519;-83
2023/05/31 07:10:02;;;;;;;13.17;10.67;;;;;;;19.06;62.35;102489.44;5027387;28;20040;-83
2023/05/31 07:12:28;;;;;;;19.42;10.85;;;;;;;19.08;61.17;102481.22;5028524;28;20275;-83
2023/05/31 07:14:53;;;;;;;15.70;10.70;;;;;;;19.28;61.07;102483.00;5025170;28;20380;-83
2023/05/31 07:17:18;;;;;;;17.07;10.63;;;;;;;19.20;59.81;102456.75;5015724;28;20034;-83
2023/05/31 07:19:45;;;;;;;15.25;10.63;;;;;;;19.48;60.25;102475.00;5021011;28;20743;-83
2023/05/31 07:22:12;;;;;;;17.20;10.55;;;;;;;19.76;60.31;102471.56;5042346;28;20152;-83
2023/05/31 07:24:37;;;;;;;16.88;11.60;;;;;;;19.99;60.26;102465.09;5031667;28;20129;-82
2023/05/31 07:27:02;;;;;;;15.20;11.13;;;;;;;20.26;59.64;102456.31;5032414;28;20026;-82
2023/05/31 07:29:27;;;;;;;19.92;11.07;;;;;;;20.38;58.62;102448.91;5027378;28;20033;-82
2023/05/31 07:31:53;;;;;;;15.27;10.80;;;;;;;20.77;57.22;102454.31;5032903;28;20025;-80
2023/05/31 07:34:18;;;;;;;14.70;10.13;;;;;;;20.95;56.76;102460.66;5025420;28;20781;-82
2023/05/31 07:36:43;;;;;;;14.37;10.70;;;;;;;21.09;55.75;102455.78;5033026;28;20288;-83
2023/05/31 07:39:10;;;;;;;13.77;10.32;;;;;;;21.18;56.35;102453.03;5032522;28;20295;-83
2023/05/31 07:41:36;;;;;;;16.90;10.27;;;;;;;21.31;53.97;102459.94;5038857;28;20510;-83
2023/05/31 07:44:02;;;;;;;14.45;10.10;;;;;;;21.47;53.52;102453.88;5039260;28;20037;-83
2023/05/31 07:46:28;;;;;;;16.25;10.93;;;;;;;21.54;53.49;102455.03;5035702;28;20076;-83
2023/05/31 07:48:54;;;;;;;17.33;10.77;;;;;;;21.70;53.43;102452.53;5034133;28;20116;-83
2023/05/31 07:51:19;;;;;;;14.20;9.73;;;;;;;22.01;53.13;102454.03;5029259;28;20033;-83
2023/05/31 07:53:46;;;;;;;14.30;10.15;;;;;;;22.14;51.24;102454.50;5032000;28;20037;-83
2023/05/31 07:56:12;;;;;;;17.35;10.40;;;;;;;22.25;51.18;102451.56;5048102;28;20028;-83
2023/05/31 07:58:37;;;;;;;14.60;9.25;;;;;;;22.43;51.33;102442.56;5031728;28;20471;-83
2023/05/31 08:01:03;;;;;;;13.80;10.15;;;;;;;22.42;49.51;102451.72;5031243;28;20499;-83
2023/05/31 08:03:28;;;;;;;13.25;9.65;;;;;;;22.52;49.73;102447.91;5043090;28;20029;-83
2023/05/31 08:05:53;;;;;;;13.00;9.90;;;;;;;22.68;49.63;102443.59;5032802;28;20034;-83
2023/05/31 08:08:19;;;;;;;12.40;9.50;;;;;;;22.92;49.27;102442.94;5037366;28;20366;-83
2023/05/31 08:10:44;;;;;;;14.03;9.40;;;;;;;23.18;48.05;102442.06;5038528;28;20037;-82
2023/05/31 08:13:10;;;;;;;14.80;9.43;;;;;;;23.52;48.46;102435.78;5030507;28;20367;-82
2023/05/31 08:15:36;;;;;;;14.63;10.30;;;;;;;23.58;47.53;102435.09;5043672;28;20049;-83
2023/05/31 08:18:01;;;;;;;15.13;9.13;;;;;;;23.74;45.58;102445.16;5038100;28;20379;-82
2023/05/31 08:20:29;;;;;;;15.60;9.13;;;;;;;23.85;45.61;102422.31;5031689;28;20052;-83
2023/05/31 08:22:54;;;;;;;17.15;8.93;;;;;;;24.08;45.70;102433.38;5046025;28;20030;-84
2023/05/31 08:25:21;;;;;;;13.23;8.83;;;;;;;24.28;45.86;102433.88;5038054;28;20021;-82
2023/05/31 08:27:46;;;;;;;15.30;9.88;;;;;;;24.33;44.19;102432.38;5041821;28;20292;-82
2023/05/31 08:30:12;;;;;;;15.38;9.93;;;;;;;24.63;44.39;102435.44;5037602;28;20098;-82
2023/05/31 08:32:38;;;;;;;15.98;9.52;;;;;;;24.63;44.12;102429.13;5038005;28;20033;-82
2023/05/31 08:35:06;;;;;;;17.05;9.57;;;;;;;24.93;44.15;102427.53;5032325;28;20021;-81
2023/05/31 08:37:32;;;;;;;13.90;8.70;;;;;;;24.84;42.93;102434.88;5037170;28;20029;-81
2023/05/31 08:39:57;;;;;;;12.88;8.13;;;;;;;25.00;41.86;102431.28;5036478;28;20028;-82
2023/05/31 08:42:32;;;;;;;14.30;8.40;;;;;;;25.12;41.64;102426.28;5036396;28;20025;-82
2023/05/31 08:44:58;;;;;;;13.32;7.32;;;;;;;25.42;41.73;102432.81;5036365;28;20299;-79
2023/05/31 08:47:28;;;;;;;11.98;8.00;;;;;;;25.44;41.25;102419.88;5032870;28;20064;-79
2023/05/31 08:49:55;;;;;;;15.02;8.52;;;;;;;25.58;40.84;102421.00;5032597;28;20041;-79
2023/05/31 08:52:21;;;;;;;15.57;9.02;;;;;;;25.88;41.38;102414.84;5037224;28;20025;-78
2023/05/31 08:54:56;;;;;;;14.52;8.27;;;;;;;25.97;39.96;102411.94;5037602;28;20037;-78
2023/05/31 08:57:22;;;;;;;12.52;7.75;;;;;;;26.21;40.48;102413.63;5033063;28;20471;-79
2023/05/31 08:59:48;;;;;;;12.75;8.63;;;;;;;26.52;39.36;102415.34;5035903;28;20155;-79
2023/05/31 09:02:15;;;;;;;15.38;8.18;;;;;;;26.69;39.60;102404.31;5036950;28;20030;-79
2023/05/31 09:04:41;;;;;;;13.60;8.45;;;;;;;26.60;38.59;102406.25;5022940;28;20529;-80
2023/05/31 09:07:06;;;;;;;11.85;7.53;;;;;;;26.83;38.67;102408.94;5036244;28;20097;-79
2023/05/31 09:09:32;;;;;;;11.68;7.15;;;;;;;26.91;37.96;102406.13;5034821;28;20021;-79
2023/05/31 09:11:57;;;;;;;16.80;9.00;;;;;;;26.96;38.08;102405.53;5034395;28;20112;-79
2023/05/31 09:14:23;;;;;;;12.33;7.77;;;;;;;27.24;38.66;102410.31;5033064;28;20155;-78
2023/05/31 09:16:50;;;;;;;11.30;7.43;;;;;;;27.51;38.33;102400.59;5034930;28;20283;-79
2023/05/31 09:19:15;;;;;;;15.18;8.30;;;;;;;27.55;36.62;102401.91;5034836;28;20124;-79
2023/05/31 09:21:42;;;;;;;13.37;7.23;;;;;;;27.69;37.56;102398.28;5035389;28;20117;-82
2023/05/31 09:24:08;;;;;;;14.18;7.22;;;;;;;27.78;36.67;102398.13;5035272;28;20295;-83
2023/05/31 09:26:34;;;;;;;11.27;7.18;;;;;;;28.01;35.95;102392.50;5034942;28;20021;-81
2023/05/31 09:29:00;;;;;;;15.32;7.53;;;;;;;28.29;35.41;102397.16;5034739;28;20021;-81
2023/05/31 09:31:27;;;;;;;11.40;6.70;;;;;;;28.58;37.03;102391.53;5034669;28;20053;-82
2023/05/31 09:33:54;;;;;;;15.80;7.13;;;;;;;28.60;35.71;102383.13;5027787;28;20030;-81
2023/05/31 09:36:27;;;;;;;13.93;6.30;;;;;;;28.69;36.51;102386.53;5033887;28;20025;-82
2023/05/31 09:39:04;;;;;;;20.42;7.57;;;;;;;28.70;36.12;102378.13;5034696;28;20088;-82
2023/05/31 09:41:31;;;;;;;11.45;6.40;;;;;;;28.87;34.25;102381.38;5035036;28;20053;-82
2023/05/31 09:43:56;;;;;;;14.85;6.13;;;;;;;28.95;33.99;102370.28;5034978;28;20052;-82
2023/05/31 09:46:23;;;;;;;11.70;5.78;;;;;;;29.27;33.28;102362.44;5034410;28;20461;-82
2023/05/31 09:49:09;;;;;;;9.95;5.15;;;;;;;29.45;34.61;102363.75;5034646;28;20025;-82
2023/05/31 09:51:35;;;;;;;9.90;5.60;;;;;;;29.38;32.83;102357.41;5035570;28;20037;-82
2023/05/31 09:54:07;;;;;;;10.07;5.75;;;;;;;29.44;31.67;102360.16;5041416;28;20036;-83
2023/05/31 09:56:36;;;;;;;10.50;6.30;;;;;;;29.34;31.89;102357.84;5023143;28;20030;-82
2023/05/31 09:59:02;;;;;;;8.63;5.38;;;;;;;29.39;30.58;102359.94;5035093;28;20028;-83
2023/05/31 10:01:28;;;;;;;9.07;5.05;;;;;;;29.50;31.46;102362.06;5041483;28;20036;-82
2023/05/31 10:03:53;;;;;;;7.55;5.30;;;;;;;29.55;30.95;102360.63;5039850;28;20042;-81
2023/05/31 10:06:19;;;;;;;11.88;5.55;;;;;;;29.70;31.20;102356.63;5039096;28;20032;-81
2023/05/31 10:08:46;;;;;;;12.13;5.28;;;;;;;29.57;30.79;102361.25;5043424;28;20025;-82
2023/05/31 10:11:15;;;;;;;8.13;4.68;;;;;;;29.80;30.59;102353.50;5046266;28;20091;-81
2023/05/31 10:13:43;;;;;;;9.15;5.00;;;;;;;29.93;30.54;102349.94;5035649;28;20100;-81
2023/05/31 10:16:10;;;;;;;9.70;4.40;;;;;;;30.15;30.56;102355.19;5034094;28;20044;-81
2023/05/31 10:18:40;;;;;;;10.43;4.90;;;;;;;30.11;29.67;102356.66;5033678;28;20033;-81
2023/05/31 10:21:09;;;;;;;9.70;4.53;;;;;;;30.21;28.47;102348.84;5021333;28;20488;-81
2023/05/31 10:23:41;;;;;;;12.02;4.80;;;;;;;30.19;29.57;102334.53;5036200;28;20029;-81
2023/05/31 10:26:17;;;;;;;9.25;4.40;;;;;;;30.53;30.31;102340.84;5051436;28;20068;-81
2023/05/31 10:29:03;;;;;;;8.90;4.32;;;;;;;30.80;29.78;102338.84;5036295;28;20391;-80
2023/05/31 10:31:33;;;;;;;7.10;4.40;;;;;;;30.62;27.95;102325.81;5034307;28;20080;-82
2023/05/31 10:34:24;;;;;;;7.63;4.25;;;;;;;30.59;28.34;102321.63;5043149;28;20067;-81
2023/05/31 10:36:54;;;;;;;8.07;3.80;;;;;;;30.72;28.90;102315.22;5040145;28;20045;-80
2023/05/31 10:39:28;;;;;;;8.38;3.92;;;;;;;30.76;28.69;102315.63;5040612;28;20105;-80
2023/05/31 10:42:02;;;;;;;8.98;3.78;;;;;;;31.01;28.76;102304.81;5031305;28;20502;-80
2023/05/31 10:44:35;;;;;;;11.65;3.83;;;;;;;31.11;27.79;102304.31;5040183;28;20037;-80
2023/05/31 10:47:07;;;;;;;8.82;3.72;;;;;;;31.08;26.77;102305.59;5034125;28;20034;-80
2023/05/31 10:49:36;;;;;;;6.97;3.35;;;;;;;31.07;28.11;102289.34;5035781;28;20045;-80
2023/05/31 10:52:05;;;;;;;7.57;3.90;;;;;;;31.05;26.94;102303.28;5039576;28;20046;-80
2023/05/31 10:54:32;;;;;;;10.27;3.63;;;;;;;31.19;28.04;102298.56;5039966;28;20018;-81
2023/05/31 10:56:59;;;;;;;10.40;3.13;;;;;;;31.15;26.41;102295.41;5040788;28;20089;-81
2023/05/31 10:59:27;;;;;;;9.35;3.80;;;;;;;30.68;26.37;102288.44;5043263;28;20026;-82
2023/05/31 11:01:54;;;;;;;8.98;3.55;;;;;;;30.67;27.48;102292.25;5044191;28;20041;-82
2023/05/31 11:04:21;;;;;;;10.15;3.33;;;;;;;30.44;26.22;102293.59;5043081;28;20499;-81
2023/05/31 11:06:51;;;;;;;7.93;3.03;;;;;;;30.54;26.66;102295.88;5041855;28;20038;-81
2023/05/31 11:09:16;;;;;;;7.93;3.40;;;;;;;30.68;26.06;102292.06;5043225;28;20030;-81
2023/05/31 11:11:49;;;;;;;14.27;4.15;;;;;;;30.63;27.21;102295.44;5033892;28;20034;-80
2023/05/31 11:14:25;;;;;;;6.32;3.47;;;;;;;30.56;26.81;102282.78;5037779;28;20017;-81